createdAt,value
2023-01-29T00:00:26.255Z,54.79
2023-01-29T00:02:53.964Z,55.25
2023-01-29T00:05:28.027Z,54.79
2023-01-29T00:07:56.202Z,55.19
2023-01-29T00:10:24.559Z,55.17
2023-01-29T00:12:52.691Z,55.35
2023-01-29T00:15:20.896Z,55.01
2023-01-29T00:17:50.017Z,55.35
2023-01-29T00:20:18.768Z,54.98
2023-01-29T00:22:46.698Z,55.35
2023-01-29T00:25:14.408Z,54.89
2023-01-29T00:27:42.137Z,54.62
2023-01-29T00:30:12.832Z,54.74
2023-01-29T00:32:40.747Z,54.99
2023-01-29T00:35:10.802Z,54.76
2023-01-29T00:37:38.651Z,54.93
2023-01-29T00:40:07.477Z,54.84
2023-01-29T00:42:52.841Z,55.25
2023-01-29T00:45:20.511Z,54.90
2023-01-29T00:47:48.303Z,55.11
2023-01-29T00:50:17.783Z,55.07
2023-01-29T00:52:45.900Z,54.88
2023-01-29T00:55:13.889Z,55.59
2023-01-29T00:57:41.624Z,54.94
2023-01-29T01:00:14.666Z,55.31
2023-01-29T01:03:00.240Z,55.35
2023-01-29T01:05:29.523Z,55.41
2023-01-29T01:07:59.238Z,55.19
2023-01-29T01:10:29.502Z,54.82
2023-01-29T01:12:59.750Z,54.99
2023-01-29T01:15:29.371Z,54.91
2023-01-29T01:17:58.252Z,55.19
2023-01-29T01:20:26.620Z,55.30
2023-01-29T01:22:56.323Z,54.92
2023-01-29T01:25:25.138Z,55.16
2023-01-29T01:27:53.668Z,55.25
2023-01-29T01:30:21.839Z,54.83
2023-01-29T01:32:49.986Z,55.37
2023-01-29T01:35:18.067Z,55.27
2023-01-29T01:37:45.790Z,55.48
2023-01-29T01:40:21.254Z,55.47
2023-01-29T01:42:50.176Z,55.42
2023-01-29T01:45:25.766Z,55.38
2023-01-29T01:47:57.519Z,55.07
2023-01-29T01:50:29.764Z,54.91
2023-01-29T01:53:03.555Z,55.38
2023-01-29T01:55:35.549Z,55.38
2023-01-29T01:58:10.377Z,55.44
2023-01-29T02:00:39.632Z,55.02
2023-01-29T02:03:27.341Z,54.95
2023-01-29T02:06:14.026Z,54.93
2023-01-29T02:09:06.079Z,55.49
2023-01-29T02:11:35.131Z,55.41
2023-01-29T02:14:03.598Z,55.00
2023-01-29T02:16:31.509Z,55.35
2023-01-29T02:18:59.228Z,55.72
2023-01-29T02:21:52.046Z,55.08
2023-01-29T02:25:09.941Z,55.03
2023-01-29T02:28:10.261Z,55.63
2023-01-29T02:30:44.132Z,55.01
2023-01-29T02:33:21.381Z,55.22
2023-01-29T02:35:57.211Z,55.28
2023-01-29T02:38:31.741Z,55.88
2023-01-29T02:41:03.174Z,54.94
2023-01-29T02:43:38.552Z,55.26
2023-01-29T02:46:16.973Z,54.97
2023-01-29T02:48:54.972Z,55.01
2023-01-29T02:51:31.238Z,55.53
2023-01-29T02:54:04.687Z,55.20
2023-01-29T02:56:39.772Z,55.56
2023-01-29T02:59:11.092Z,55.12
2023-01-29T03:01:47.061Z,55.31
2023-01-29T03:04:21.004Z,55.60
2023-01-29T03:06:54.515Z,55.62
2023-01-29T03:09:29.385Z,55.68
2023-01-29T03:12:20.002Z,55.80
2023-01-29T03:15:09.076Z,55.14
2023-01-29T03:17:42.981Z,55.23
2023-01-29T03:20:15.733Z,55.47
2023-01-29T03:22:48.979Z,54.91
2023-01-29T03:25:37.227Z,55.46
2023-01-29T03:28:24.958Z,55.19
2023-01-29T03:31:12.508Z,55.86
2023-01-29T03:33:46.624Z,55.51
2023-01-29T03:36:19.615Z,55.39
2023-01-29T03:38:47.372Z,55.21
2023-01-29T03:41:24.278Z,55.36
2023-01-29T03:44:00.648Z,55.56
2023-01-29T03:46:34.812Z,56.04
2023-01-29T03:49:13.162Z,55.31
2023-01-29T03:51:54.653Z,55.33
2023-01-29T03:54:27.347Z,55.44
2023-01-29T03:57:01.266Z,55.66
2023-01-29T03:59:38.781Z,55.14
2023-01-29T04:02:10.101Z,55.82
2023-01-29T04:04:42.543Z,55.18
2023-01-29T04:07:13.519Z,55.82
2023-01-29T04:09:47.534Z,56.02
2023-01-29T04:12:19.717Z,55.91
2023-01-29T04:14:48.682Z,55.86
2023-01-29T04:17:20.878Z,55.74
2023-01-29T04:19:50.084Z,55.60
2023-01-29T04:22:21.262Z,55.93
2023-01-29T04:24:50.609Z,56.18
2023-01-29T04:27:28.648Z,56.17
2023-01-29T04:30:07.044Z,56.10
2023-01-29T04:32:48.045Z,56.49
2023-01-29T04:35:30.686Z,56.14
2023-01-29T04:38:07.455Z,56.09
2023-01-29T04:40:43.534Z,56.26
2023-01-29T04:43:19.164Z,55.97
2023-01-29T04:46:00.370Z,56.23
2023-01-29T04:48:31.675Z,56.78
2023-01-29T04:51:09.791Z,56.57
2023-01-29T04:53:42.498Z,56.68
2023-01-29T04:56:17.148Z,56.22
2023-01-29T04:58:49.918Z,56.58
2023-01-29T05:01:20.268Z,56.39
2023-01-29T05:03:51.276Z,56.80
2023-01-29T05:06:22.180Z,56.96
2023-01-29T05:08:52.199Z,56.92
2023-01-29T05:11:21.406Z,56.85
2023-01-29T05:13:50.021Z,56.09
2023-01-29T05:16:21.956Z,56.26
2023-01-29T05:18:49.781Z,57.12
2023-01-29T05:21:17.560Z,56.79
2023-01-29T05:23:53.361Z,56.56
2023-01-29T05:26:39.175Z,57.11
2023-01-29T05:29:07.007Z,57.31
2023-01-29T05:31:34.703Z,56.86
2023-01-29T05:34:02.436Z,56.58
2023-01-29T05:36:30.697Z,57.32
2023-01-29T05:38:59.819Z,57.32
2023-01-29T05:41:27.609Z,56.88
2023-01-29T05:43:55.332Z,57.10
2023-01-29T05:46:23.074Z,57.11
2023-01-29T05:48:53.650Z,56.96
2023-01-29T05:51:21.380Z,56.79
2023-01-29T05:53:49.121Z,57.13
2023-01-29T05:56:18.236Z,57.55
2023-01-29T05:58:45.980Z,56.92
2023-01-29T06:01:16.188Z,56.81
2023-01-29T06:03:44.248Z,57.49
2023-01-29T06:06:12.268Z,56.48
2023-01-29T06:08:40.262Z,56.77
2023-01-29T06:11:10.422Z,55.94
2023-01-29T06:13:39.807Z,55.73
2023-01-29T06:16:08.545Z,55.68
2023-01-29T06:18:36.913Z,54.52
2023-01-29T06:21:05.955Z,54.53
2023-01-29T06:23:34.185Z,54.05
2023-01-29T06:26:02.161Z,53.77
2023-01-29T06:28:30.258Z,53.12
2023-01-29T06:31:11.447Z,53.17
2023-01-29T06:33:44.127Z,52.68
2023-01-29T06:36:12.061Z,52.28
2023-01-29T06:38:39.731Z,52.20
2023-01-29T06:41:13.525Z,52.36
2023-01-29T06:43:41.231Z,52.81
2023-01-29T06:46:10.269Z,53.18
2023-01-29T06:48:38.138Z,54.02
2023-01-29T06:51:07.912Z,54.49
2023-01-29T06:53:36.914Z,55.04
2023-01-29T06:56:05.356Z,54.96
2023-01-29T06:58:33.254Z,55.71
2023-01-29T07:01:04.937Z,55.52
2023-01-29T07:03:34.336Z,55.93
2023-01-29T07:06:02.443Z,55.81
2023-01-29T07:08:30.126Z,55.97
2023-01-29T07:11:00.895Z,56.46
2023-01-29T07:13:28.899Z,56.28
2023-01-29T07:15:59.591Z,56.88
2023-01-29T07:18:27.443Z,56.26
2023-01-29T07:20:57.162Z,56.44
2023-01-29T07:23:25.413Z,56.46
2023-01-29T07:25:53.149Z,57.42
2023-01-29T07:28:21.451Z,57.20
2023-01-29T07:30:49.334Z,56.88
2023-01-29T07:33:17.063Z,57.16
2023-01-29T07:35:44.805Z,56.39
2023-01-29T07:38:13.899Z,55.71
2023-01-29T07:40:41.640Z,55.30
2023-01-29T07:43:10.833Z,54.88
2023-01-29T07:45:40.401Z,54.45
2023-01-29T07:48:10.929Z,54.05
2023-01-29T07:50:39.267Z,53.74
2023-01-29T07:53:07.090Z,53.30
2023-01-29T07:55:36.305Z,53.20
2023-01-29T07:58:05.042Z,52.69
2023-01-29T08:00:33.345Z,52.07
2023-01-29T08:03:04.797Z,52.24
2023-01-29T08:05:32.808Z,51.96
2023-01-29T08:08:06.892Z,52.08
2023-01-29T08:10:36.795Z,52.08
2023-01-29T08:13:05.543Z,52.66
2023-01-29T08:15:33.948Z,53.10
2023-01-29T08:18:02.560Z,53.91
2023-01-29T08:20:30.550Z,54.44
2023-01-29T08:23:02.149Z,54.69
2023-01-29T08:25:30.576Z,54.93
2023-01-29T08:28:01.177Z,55.73
2023-01-29T08:30:30.535Z,55.84
2023-01-29T08:32:58.453Z,56.05
2023-01-29T08:35:26.636Z,55.63
2023-01-29T08:37:55.639Z,56.29
2023-01-29T08:40:23.470Z,56.03
2023-01-29T08:42:51.210Z,56.40
2023-01-29T08:45:20.335Z,56.50
2023-01-29T08:47:48.981Z,57.02
2023-01-29T08:50:17.657Z,56.39
2023-01-29T08:52:46.192Z,56.69
2023-01-29T08:55:14.996Z,56.83
2023-01-29T08:57:42.887Z,56.70
2023-01-29T09:00:13.126Z,56.83
2023-01-29T09:02:42.240Z,56.96
2023-01-29T09:05:10.709Z,57.58
2023-01-29T09:07:38.470Z,57.44
2023-01-29T09:10:07.110Z,57.48
2023-01-29T09:12:34.888Z,57.59
2023-01-29T09:15:02.644Z,57.62
2023-01-29T09:17:30.360Z,57.21
2023-01-29T09:19:59.410Z,57.52
2023-01-29T09:22:27.192Z,57.15
2023-01-29T09:24:54.930Z,56.71
2023-01-29T09:27:22.648Z,55.96
2023-01-29T09:29:50.389Z,55.56
2023-01-29T09:32:37.641Z,55.21
2023-01-29T09:35:08.070Z,54.98
2023-01-29T09:37:36.026Z,54.67
2023-01-29T09:40:03.812Z,54.92
2023-01-29T09:42:39.305Z,55.39
2023-01-29T09:45:13.838Z,55.42
2023-01-29T09:47:41.815Z,55.85
2023-01-29T09:50:19.990Z,55.98
2023-01-29T09:52:53.775Z,56.17
2023-01-29T09:55:26.063Z,56.21
2023-01-29T09:57:57.071Z,56.47
2023-01-29T10:00:29.536Z,56.88
2023-01-29T10:03:18.996Z,56.59
2023-01-29T10:06:04.941Z,57.08
2023-01-29T10:08:56.832Z,56.94
2023-01-29T10:11:34.184Z,57.43
2023-01-29T10:14:13.091Z,57.18
2023-01-29T10:16:52.884Z,57.66
2023-01-29T10:19:42.126Z,57.63
2023-01-29T10:22:31.805Z,57.36
2023-01-29T10:25:03.440Z,57.48
2023-01-29T10:27:35.052Z,57.38
2023-01-29T10:30:09.500Z,57.62
2023-01-29T10:32:38.571Z,58.03
2023-01-29T10:35:21.440Z,57.60
2023-01-29T10:37:54.237Z,58.29
2023-01-29T10:40:24.925Z,57.77
2023-01-29T10:43:01.487Z,57.81
2023-01-29T10:45:38.276Z,57.49
2023-01-29T10:48:45.575Z,57.25
2023-01-29T10:51:26.843Z,56.64
2023-01-29T10:54:10.572Z,56.20
2023-01-29T10:56:55.653Z,55.61
2023-01-29T10:59:40.480Z,55.59
2023-01-29T11:02:17.821Z,55.05
2023-01-29T11:04:46.159Z,55.02
2023-01-29T11:07:16.114Z,55.32
2023-01-29T11:09:49.938Z,55.54
2023-01-29T11:12:21.728Z,55.42
2023-01-29T11:14:54.752Z,56.26
2023-01-29T11:17:24.962Z,56.02
2023-01-29T11:19:55.628Z,56.30
2023-01-29T11:22:24.567Z,56.61
2023-01-29T11:25:10.902Z,57.14
2023-01-29T11:27:45.090Z,57.11
2023-01-29T11:30:20.742Z,56.98
2023-01-29T11:32:52.849Z,57.07
2023-01-29T11:35:26.583Z,57.53
2023-01-29T11:37:54.296Z,57.44
2023-01-29T11:40:38.871Z,57.41
2023-01-29T11:43:18.841Z,57.87
2023-01-29T11:45:47.671Z,57.35
2023-01-29T11:48:17.814Z,58.20
2023-01-29T11:50:53.008Z,57.78
2023-01-29T11:53:32.720Z,57.61
2023-01-29T11:56:04.041Z,57.83
2023-01-29T11:58:35.716Z,57.57
2023-01-29T12:01:04.763Z,58.26
2023-01-29T12:03:36.988Z,57.88
2023-01-29T12:06:08.184Z,58.43
2023-01-29T12:08:39.102Z,57.86
2023-01-29T12:11:13.723Z,58.00
2023-01-29T12:13:43.746Z,57.50
2023-01-29T12:16:20.202Z,57.08
2023-01-29T12:18:52.496Z,56.47
2023-01-29T12:21:27.097Z,56.01
2023-01-29T12:24:02.469Z,55.67
2023-01-29T12:26:35.250Z,55.38
2023-01-29T12:29:19.148Z,55.58
2023-01-29T12:31:54.637Z,56.14
2023-01-29T12:34:31.942Z,56.32
2023-01-29T12:37:04.284Z,56.33
2023-01-29T12:39:32.543Z,56.79
2023-01-29T12:42:06.250Z,56.87
2023-01-29T12:44:42.097Z,57.00
2023-01-29T12:47:17.178Z,57.39
2023-01-29T12:49:50.965Z,57.51
2023-01-29T12:52:23.780Z,57.44
2023-01-29T12:54:56.389Z,57.03
2023-01-29T12:57:36.074Z,57.22
2023-01-29T13:00:08.850Z,57.32
2023-01-29T13:02:41.023Z,57.14
2023-01-29T13:05:20.624Z,57.16
2023-01-29T13:07:52.534Z,57.90
2023-01-29T13:10:24.208Z,57.84
2023-01-29T13:13:00.867Z,57.78
2023-01-29T13:15:34.241Z,57.86
2023-01-29T13:18:21.639Z,57.58
2023-01-29T13:20:50.792Z,57.25
2023-01-29T13:23:22.768Z,56.76
2023-01-29T13:25:54.691Z,56.70
2023-01-29T13:28:26.602Z,56.13
2023-01-29T13:31:19.150Z,55.71
2023-01-29T13:33:55.133Z,55.10
2023-01-29T13:36:27.412Z,55.32
2023-01-29T13:39:01.250Z,55.66
2023-01-29T13:41:41.577Z,55.98
2023-01-29T13:44:22.076Z,56.27
2023-01-29T13:46:52.742Z,56.86
2023-01-29T13:49:28.747Z,57.30
2023-01-29T13:51:56.735Z,56.92
2023-01-29T13:54:27.277Z,57.55
2023-01-29T13:57:00.506Z,57.55
2023-01-29T13:59:53.211Z,57.73
2023-01-29T14:02:25.968Z,57.85
2023-01-29T14:05:32.113Z,57.62
2023-01-29T14:08:01.193Z,57.80
2023-01-29T14:10:30.557Z,58.08
2023-01-29T14:13:28.032Z,58.06
2023-01-29T14:16:43.794Z,58.22
2023-01-29T14:19:20.408Z,58.37
2023-01-29T14:21:51.592Z,58.44
2023-01-29T14:24:22.208Z,58.50
2023-01-29T14:26:54.943Z,58.12
2023-01-29T14:29:34.148Z,58.56
2023-01-29T14:32:13.178Z,58.61
2023-01-29T14:34:47.604Z,57.83
2023-01-29T14:37:23.001Z,57.56
2023-01-29T14:39:52.714Z,56.93
2023-01-29T14:42:25.493Z,56.25
2023-01-29T14:45:08.251Z,56.00
2023-01-29T14:48:21.080Z,55.55
2023-01-29T14:50:53.997Z,55.65
2023-01-29T14:53:28.663Z,55.94
2023-01-29T14:56:00.725Z,56.30
2023-01-29T14:58:39.635Z,56.48
2023-01-29T15:01:16.683Z,57.12
2023-01-29T15:03:45.609Z,57.32
2023-01-29T15:06:21.111Z,57.22
2023-01-29T15:08:56.536Z,57.68
2023-01-29T15:11:36.608Z,57.73
2023-01-29T15:14:15.617Z,57.44
2023-01-29T15:16:53.060Z,57.99
2023-01-29T15:19:27.219Z,57.99
2023-01-29T15:22:14.737Z,57.81
2023-01-29T15:24:43.283Z,58.17
2023-01-29T15:27:16.913Z,57.59
2023-01-29T15:29:48.897Z,57.34
2023-01-29T15:32:31.146Z,56.45
2023-01-29T15:35:00.403Z,56.47
2023-01-29T15:37:32.516Z,55.42
2023-01-29T15:40:04.212Z,55.43
2023-01-29T15:42:44.653Z,54.91
2023-01-29T15:45:28.399Z,54.20
2023-01-29T15:48:01.105Z,54.04
2023-01-29T15:50:30.288Z,54.07
2023-01-29T15:53:03.700Z,53.71
2023-01-29T15:55:32.727Z,53.47
2023-01-29T15:58:01.330Z,53.59
2023-01-29T16:00:30.636Z,52.90
2023-01-29T16:03:00.668Z,53.26
2023-01-29T16:05:30.563Z,53.84
2023-01-29T16:08:01.174Z,54.51
2023-01-29T16:10:31.916Z,54.79
2023-01-29T16:13:00.223Z,55.02
2023-01-29T16:15:34.512Z,56.06
2023-01-29T16:18:05.415Z,56.33
2023-01-29T16:20:37.410Z,56.22
2023-01-29T16:23:08.050Z,56.79
2023-01-29T16:25:39.811Z,57.02
2023-01-29T16:28:11.025Z,57.25
2023-01-29T16:30:39.979Z,57.44
2023-01-29T16:33:13.003Z,57.49
2023-01-29T16:35:41.482Z,57.76
2023-01-29T16:38:25.094Z,57.98
2023-01-29T16:41:07.197Z,57.99
2023-01-29T16:43:50.207Z,58.14
2023-01-29T16:46:22.435Z,58.30
2023-01-29T16:48:50.162Z,58.33
2023-01-29T16:51:24.633Z,58.21
2023-01-29T16:54:09.112Z,58.41
2023-01-29T16:56:39.116Z,58.40
2023-01-29T16:59:07.868Z,58.53
2023-01-29T17:01:37.445Z,58.49
2023-01-29T17:04:09.991Z,58.55
2023-01-29T17:06:38.981Z,58.36
2023-01-29T17:09:08.270Z,58.48
2023-01-29T17:11:39.228Z,58.87
2023-01-29T17:14:08.654Z,58.36
2023-01-29T17:16:47.547Z,58.88
2023-01-29T17:19:20.872Z,58.72
2023-01-29T17:21:48.789Z,58.88
2023-01-29T17:24:17.916Z,58.66
2023-01-29T17:26:45.873Z,58.37
2023-01-29T17:29:16.507Z,58.07
2023-01-29T17:31:44.499Z,57.65
2023-01-29T17:34:14.367Z,56.90
2023-01-29T17:36:42.143Z,56.54
2023-01-29T17:39:19.183Z,56.46
2023-01-29T17:41:48.241Z,55.58
2023-01-29T17:44:16.263Z,55.51
2023-01-29T17:46:44.083Z,56.19
2023-01-29T17:49:21.642Z,56.50
2023-01-29T17:51:50.408Z,56.93
2023-01-29T17:54:19.953Z,57.47
2023-01-29T17:56:47.848Z,57.46
2023-01-29T17:59:16.521Z,57.99
2023-01-29T18:01:45.083Z,58.13
2023-01-29T18:04:13.521Z,57.89
2023-01-29T18:06:43.049Z,58.17
2023-01-29T18:09:14.212Z,58.44
2023-01-29T18:11:44.304Z,58.40
2023-01-29T18:14:13.918Z,58.56
2023-01-29T18:16:43.140Z,58.47
2023-01-29T18:19:15.491Z,58.22
2023-01-29T18:21:43.266Z,58.58
2023-01-29T18:24:11.151Z,58.66
2023-01-29T18:26:39.507Z,59.15
2023-01-29T18:29:09.328Z,59.06
2023-01-29T18:31:37.120Z,59.08
2023-01-29T18:34:04.889Z,59.47
2023-01-29T18:36:32.608Z,59.08
2023-01-29T18:39:00.368Z,59.52
2023-01-29T18:41:28.110Z,59.43
2023-01-29T18:43:55.893Z,59.13
2023-01-29T18:46:25.141Z,58.75
2023-01-29T18:48:52.931Z,58.21
2023-01-29T18:51:20.736Z,57.38
2023-01-29T18:53:51.593Z,57.08
2023-01-29T18:56:19.803Z,56.29
2023-01-29T18:58:52.453Z,56.45
2023-01-29T19:01:27.177Z,56.09
2023-01-29T19:03:56.063Z,56.73
2023-01-29T19:06:23.800Z,56.70
2023-01-29T19:08:51.716Z,57.42
2023-01-29T19:11:19.523Z,57.79
2023-01-29T19:13:48.030Z,58.13
2023-01-29T19:16:15.789Z,57.81
2023-01-29T19:18:44.871Z,58.29
2023-01-29T19:21:14.498Z,58.74
2023-01-29T19:23:43.083Z,58.69
2023-01-29T19:26:11.504Z,58.97
2023-01-29T19:28:39.362Z,58.78
2023-01-29T19:31:07.223Z,59.22
2023-01-29T19:33:34.976Z,59.17
2023-01-29T19:36:04.167Z,59.43
2023-01-29T19:38:33.576Z,59.31
2023-01-29T19:41:01.328Z,59.46
2023-01-29T19:43:30.411Z,59.63
2023-01-29T19:45:59.606Z,59.61
2023-01-29T19:48:27.674Z,59.69
2023-01-29T19:50:57.083Z,59.47
2023-01-29T19:53:28.185Z,59.82
2023-01-29T19:55:59.903Z,59.96
2023-01-29T19:58:28.343Z,60.07
2023-01-29T20:00:59.340Z,59.97
2023-01-29T20:03:28.883Z,60.13
2023-01-29T20:05:57.277Z,60.23
2023-01-29T20:08:26.338Z,60.38
2023-01-29T20:10:54.109Z,60.40
2023-01-29T20:13:21.953Z,60.41
2023-01-29T20:15:51.755Z,60.33
2023-01-29T20:18:19.988Z,60.40
2023-01-29T20:20:49.495Z,60.29
2023-01-29T20:23:31.833Z,60.25
2023-01-29T20:26:06.481Z,60.62
2023-01-29T20:28:34.554Z,60.85
2023-01-29T20:31:02.354Z,60.84
2023-01-29T20:33:30.203Z,60.64
2023-01-29T20:35:59.681Z,60.71
2023-01-29T20:38:30.533Z,60.95
2023-01-29T20:41:05.563Z,61.02
2023-01-29T20:43:33.569Z,61.10
2023-01-29T20:46:02.308Z,61.24
2023-01-29T20:48:30.845Z,61.22
2023-01-29T20:51:03.765Z,61.08
2023-01-29T20:53:31.529Z,61.09
2023-01-29T20:55:59.238Z,61.19
2023-01-29T20:58:28.572Z,61.07
2023-01-29T21:00:56.310Z,61.65
2023-01-29T21:03:24.095Z,61.21
2023-01-29T21:05:52.311Z,61.34
2023-01-29T21:08:20.126Z,61.46
2023-01-29T21:10:50.532Z,61.14
2023-01-29T21:13:18.284Z,61.70
2023-01-29T21:15:47.367Z,61.52
2023-01-29T21:18:15.048Z,61.65
2023-01-29T21:20:42.802Z,61.78
2023-01-29T21:23:10.660Z,62.36
2023-01-29T21:25:39.579Z,62.39
2023-01-29T21:28:07.344Z,62.23
2023-01-29T21:30:35.611Z,62.16
2023-01-29T21:33:05.181Z,62.34
2023-01-29T21:35:33.352Z,62.10
2023-01-29T21:38:01.071Z,62.06
2023-01-29T21:40:30.518Z,62.27
2023-01-29T21:43:13.577Z,62.38
2023-01-29T21:45:41.794Z,62.56
2023-01-29T21:48:12.015Z,62.55
2023-01-29T21:50:39.987Z,62.34
2023-01-29T21:53:07.884Z,62.52
2023-01-29T21:55:35.649Z,62.82
2023-01-29T21:58:04.360Z,63.02
2023-01-29T22:00:32.128Z,62.66
2023-01-29T22:02:59.981Z,63.00
2023-01-29T22:05:30.127Z,62.90
2023-01-29T22:07:57.958Z,63.21
2023-01-29T22:10:25.853Z,63.40
2023-01-29T22:12:53.865Z,63.43
2023-01-29T22:15:23.619Z,63.23
2023-01-29T22:17:52.009Z,63.46
2023-01-29T22:20:20.549Z,63.08
2023-01-29T22:22:49.711Z,63.58
2023-01-29T22:25:20.105Z,63.84
2023-01-29T22:27:47.873Z,63.75
2023-01-29T22:30:16.143Z,63.53
2023-01-29T22:32:44.155Z,63.50
2023-01-29T22:35:11.883Z,63.47
2023-01-29T22:37:39.573Z,63.86
2023-01-29T22:40:10.415Z,63.19
2023-01-29T22:42:38.126Z,63.61
2023-01-29T22:45:06.617Z,63.30
2023-01-29T22:47:34.522Z,63.45
2023-01-29T22:50:02.267Z,63.47
2023-01-29T22:52:38.217Z,64.05
2023-01-29T22:55:10.087Z,63.96
2023-01-29T22:57:38.249Z,64.05
2023-01-29T23:00:08.786Z,64.02
2023-01-29T23:02:36.585Z,63.96
2023-01-29T23:05:04.800Z,64.31
2023-01-29T23:07:32.586Z,64.70
2023-01-29T23:10:00.276Z,64.37
2023-01-29T23:12:29.340Z,64.72
2023-01-29T23:14:57.110Z,64.61
2023-01-29T23:17:25.011Z,64.69
2023-01-29T23:19:52.767Z,64.50
2023-01-29T23:22:20.467Z,64.55
2023-01-29T23:24:48.192Z,64.40
2023-01-29T23:27:15.149Z,64.58
2023-01-29T23:29:45.149Z,64.76
2023-01-29T23:32:17.521Z,65.21
2023-01-29T23:34:45.264Z,65.55
2023-01-29T23:37:13.151Z,65.02
2023-01-29T23:39:40.827Z,65.23
2023-01-29T23:42:08.517Z,65.59
2023-01-29T23:44:36.665Z,65.50
2023-01-29T23:47:05.871Z,66.00
2023-01-29T23:49:33.614Z,65.40
2023-01-29T23:52:01.486Z,65.92
2023-01-29T23:54:29.207Z,65.98
2023-01-29T23:56:56.996Z,65.74
2023-01-29T23:59:28.014Z,65.23
